CPH weather

Copenhagen Kastrup Airport
Copenhagen, Capital Region, Denmark

Public forecast

Using degrees Celsius for public forecast. Weather courtesy of forecast.io.

METAR (pilot weather report)

Retrieved 2018/10/17 19:20 UTC (35 minutes ago):

EKCH 171920Z 22002KT 2500 BR NSC 12/11 Q1019 TEMPO 1200

TAF (pilot weather forecast)

Retrieved 2018/10/17 18:00 UTC (2 hours ago):

TAF EKCH 171704Z 1718/1818 15005KT 6000 NSC TEMPO 1719/1721 4000 BR TEMPO 1721/1801 1000 BR BKN002 BECMG 1801/1803 32010KT 2000 -RADZ BKN004 BECMG 1803/1805 4000 BR BKN008 BECMG 1805/1807 9999 NSW SCT015 TEMPO 1807/1809 4000 BR BKN008